Cow Head, Canada
Current Conditions -  °F | °C
As of 5:20 AM on Thursday 29 Jan 2015 (Local Time) from CWDH Reporting Station
Overcast Overcast  
Wind Chill: 30°   Ceiling: Unl
Heat Index: 30°   Visibility: 1mi
Dew Point: 26°   Wind: 0mph
Humidity: 82%   Direction: NA
Pressure: 29.7"   Gusts: NA
Location:  49.92°N, 57.9°W
Report Text: CWDH 290820Z AUTO 00000KT 1SM OVC000 M01/M04 A2970 RMK T10091036 WSI/SWOB
Loading
Personal Weather Stations






























Interactive Weather Map New forecast layout! Learn more

10-Day Weather Forecast

Advertisements
Track Severe Weather on mobile